Terminal Aerodrome Forecast
Issued by NWS

Home | Current Version | Previous Version | Text Only | Print | Product List | Glossary On
Versions: 1 2 3 4 5 6 7 8 9 10 11 12 13 14 15 16 17 18 19 20 21 22 23 24
000
FTUS42 KFFC 241305 AAA
TAFPDK
TAF AMD
KPDK 241305Z 2413/2512 20008KT P6SM FEW010
     FM241400 22010G18KT P6SM SCT028
     FM241600 25012G23KT P6SM SCT035
     FM242100 27010G20KT P6SM SCT040
     FM250000 30009KT P6SM SCT080=

USA.gov is the U.S. government's official web portal to all federal, state and local government web resources and services.